Share

Naknek, AK

Iliamna (PAIL) Elev 161 ft | 59.75 °N, 154.91 °W | Change Station

Current weather conditions updated 43 minutes ago

Overcast
Overcast
35 °F
Feels Like 31 °F
N
5
Wind Variable Wind from West
Sunrise 7:07 AM
Sunset 9:46 PM
Moon Waning Gibbous

Today is forecast to be Cooler than yesterday. Showers possible in the afternoon.

Pressure 29.59 in
Visibility 10.0 miles
Clouds Scattered Clouds 4100 ft
Overcast 6500 ft
Windchill 31 °F
Dew Point 33 °F
Humidity 92%
Rainfall 0.00 in
Snow Depth Not available.
UV 0 out of 16
Pollen Not available.
Air Quality Not available.
Flu Activity Sporadic
METAR PAIL 170853Z AUTO 28004KT 10SM SCT041 OVC065 02/01 A2958 RMK AO2 SLP020 T00170006 400890000 56009 TSNO

More Conditions Fewer Conditions

Pressure 29.59 in
Visibility 10.0 miles
Clouds Scattered Clouds 4100 ft
Overcast 6500 ft
Windchill 31 °F
Dew Point 33 °F
Humidity 92%
Rainfall 0.00 in
Snow Depth Not available.
UV 0 out of 16
Pollen Not available.
Air Quality Not available.
Flu Activity Sporadic
METAR PAIL 170853Z AUTO 28004KT 10SM SCT041 OVC065 02/01 A2958 RMK AO2 SLP020 T00170006 400890000 56009 TSNO

More Conditions Fewer Conditions

10-Day Forecast

Almanac

Astronomy

Apr. 17, 2014 Rise Set
Actual Time 7:07 AM AKDT 9:46 PM AKDT
Civil Twilight 6:22 AM AKDT 10:32 PM AKDT
Nautical Twilight 5:22 AM AKDT 11:32 PM AKDT
Astronomical Twilight 4:00 AM AKDT 12:57 AM AKDT
Moon 12:04 AM AKDT 8:21 AM AKDT
Length of Visible Light 16h 09m
Length of Day
14h 39m
Tomorrow will be 5m 7s longer.
Waning Gibbous, 95% of the Moon is Illuminated
Today
Waning Gibbous
Apr 22
Last Quarter
Apr 29
New
May 6
First Quarter
May 14
Full

Today's Extremes

State Highs State Lows

Community

  • Sunset over the Bay
    Sunset over the Bay
  • symphony in blue....
    symphony in blue....
  • Dawn Surprise
    Dawn Surprise
  • Yucca delight
    Yucca delight
  • Sunset inside of the Ocean
    Sunset inside of the Ocean

WunderPhotos

Upload Photos

1,701,898 photos uploaded!

WunderBlogs® & News

Nearby

Snow Depth

Station Depth Elevation
Port Graham 10 in 300 ft
Mcneil Canyon 11 in 1320 ft
MF Bradley River 22 in 2300 ft
Nuka Glacier 33 in 1250 ft
Cooper Lake 23 in 1200 ft

Coastal Water Temperatures

Place Temperature
No Stations Reporting

Earthquake Activity

City Distance Mag. Time & Date
No recent earthquake activity has been reported nearby.
Minimum magnitude displayed is 2.5.

Nearby Weather Stations

There are no personal weather stations in this area.

What do you think?

We're not finished. Please let us know what you like, what you don't like, and what you are still missing.